sensor_id;sensor_type;location;lat;lon;timestamp;P1;durP1;ratioP1;P2;durP2;ratioP2
50858;SDS011;36826;47.514;19.056;2022-10-24T00:00:26;3.95;;;2.50;;
50858;SDS011;36826;47.514;19.056;2022-10-24T00:02:51;2.95;;;2.13;;
50858;SDS011;36826;47.514;19.056;2022-10-24T00:05:17;3.47;;;2.35;;
50858;SDS011;36826;47.514;19.056;2022-10-24T00:07:42;2.67;;;2.17;;
50858;SDS011;36826;47.514;19.056;2022-10-24T00:10:08;3.97;;;2.28;;
50858;SDS011;36826;47.514;19.056;2022-10-24T00:12:35;3.10;;;1.95;;
50858;SDS011;36826;47.514;19.056;2022-10-24T00:15:01;3.50;;;2.20;;
50858;SDS011;36826;47.514;19.056;2022-10-24T00:17:27;3.83;;;2.42;;
50858;SDS011;36826;47.514;19.056;2022-10-24T00:19:52;3.88;;;2.30;;
50858;SDS011;36826;47.514;19.056;2022-10-24T00:22:18;4.05;;;2.15;;
50858;SDS011;36826;47.514;19.056;2022-10-24T00:24:44;4.03;;;2.40;;
50858;SDS011;36826;47.514;19.056;2022-10-24T00:27:10;3.85;;;2.40;;
50858;SDS011;36826;47.514;19.056;2022-10-24T00:29:35;3.10;;;2.40;;
50858;SDS011;36826;47.514;19.056;2022-10-24T00:32:00;4.18;;;2.13;;
50858;SDS011;36826;47.514;19.056;2022-10-24T00:34:26;4.65;;;2.50;;
50858;SDS011;36826;47.514;19.056;2022-10-24T00:36:51;6.88;;;2.25;;
50858;SDS011;36826;47.514;19.056;2022-10-24T00:39:16;3.92;;;2.20;;
50858;SDS011;36826;47.514;19.056;2022-10-24T00:41:42;3.75;;;2.40;;
50858;SDS011;36826;47.514;19.056;2022-10-24T00:44:15;3.70;;;2.15;;
50858;SDS011;36826;47.514;19.056;2022-10-24T00:46:50;5.38;;;2.15;;
50858;SDS011;36826;47.514;19.056;2022-10-24T00:49:20;6.63;;;2.35;;
50858;SDS011;36826;47.514;19.056;2022-10-24T00:51:50;3.22;;;1.90;;
50858;SDS011;36826;47.514;19.056;2022-10-24T00:54:18;6.22;;;2.50;;
50858;SDS011;36826;47.514;19.056;2022-10-24T00:56:48;4.10;;;2.30;;
50858;SDS011;36826;47.514;19.056;2022-10-24T00:59:20;4.32;;;1.85;;
50858;SDS011;36826;47.514;19.056;2022-10-24T01:01:47;5.18;;;2.28;;
50858;SDS011;36826;47.514;19.056;2022-10-24T01:04:13;4.88;;;2.20;;
50858;SDS011;36826;47.514;19.056;2022-10-24T01:14:36;4.15;;;2.15;;
50858;SDS011;36826;47.514;19.056;2022-10-24T01:17:13;5.25;;;2.20;;
50858;SDS011;36826;47.514;19.056;2022-10-24T01:28:16;4.03;;;1.98;;
50858;SDS011;36826;47.514;19.056;2022-10-24T01:30:47;4.28;;;2.00;;
50858;SDS011;36826;47.514;19.056;2022-10-24T01:33:22;4.68;;;2.03;;
50858;SDS011;36826;47.514;19.056;2022-10-24T01:36:17;4.93;;;2.00;;
50858;SDS011;36826;47.514;19.056;2022-10-24T01:38:50;4.25;;;2.00;;
50858;SDS011;36826;47.514;19.056;2022-10-24T01:41:21;3.17;;;2.00;;
50858;SDS011;36826;47.514;19.056;2022-10-24T01:43:54;3.83;;;1.95;;
50858;SDS011;36826;47.514;19.056;2022-10-24T01:46:31;5.05;;;1.75;;
50858;SDS011;36826;47.514;19.056;2022-10-24T01:49:02;5.22;;;2.15;;
50858;SDS011;36826;47.514;19.056;2022-10-24T01:51:32;3.40;;;1.90;;
50858;SDS011;36826;47.514;19.056;2022-10-24T01:54:00;3.10;;;2.00;;
50858;SDS011;36826;47.514;19.056;2022-10-24T01:59:02;3.67;;;2.17;;
50858;SDS011;36826;47.514;19.056;2022-10-24T02:01:29;3.22;;;1.90;;
50858;SDS011;36826;47.514;19.056;2022-10-24T02:03:56;4.00;;;1.83;;
50858;SDS011;36826;47.514;19.056;2022-10-24T02:06:29;2.85;;;1.80;;
50858;SDS011;36826;47.514;19.056;2022-10-24T02:09:04;3.70;;;1.80;;
50858;SDS011;36826;47.514;19.056;2022-10-24T02:11:33;3.88;;;1.83;;
50858;SDS011;36826;47.514;19.056;2022-10-24T02:14:09;3.28;;;2.00;;
50858;SDS011;36826;47.514;19.056;2022-10-24T02:16:37;3.80;;;1.80;;
50858;SDS011;36826;47.514;19.056;2022-10-24T02:19:02;3.05;;;2.10;;
50858;SDS011;36826;47.514;19.056;2022-10-24T02:21:48;3.58;;;1.73;;
50858;SDS011;36826;47.514;19.056;2022-10-24T02:24:22;5.05;;;1.83;;
50858;SDS011;36826;47.514;19.056;2022-10-24T02:32:53;2.20;;;1.80;;
50858;SDS011;36826;47.514;19.056;2022-10-24T02:35:13;3.00;;;2.05;;
50858;SDS011;36826;47.514;19.056;2022-10-24T02:37:43;4.68;;;1.80;;
50858;SDS011;36826;47.514;19.056;2022-10-24T02:40:11;4.30;;;1.95;;
50858;SDS011;36826;47.514;19.056;2022-10-24T02:42:41;2.95;;;1.80;;
50858;SDS011;36826;47.514;19.056;2022-10-24T02:45:08;3.17;;;1.70;;
50858;SDS011;36826;47.514;19.056;2022-10-24T02:47:35;2.42;;;1.67;;
50858;SDS011;36826;47.514;19.056;2022-10-24T02:50:04;3.28;;;1.75;;
50858;SDS011;36826;47.514;19.056;2022-10-24T02:52:31;3.42;;;1.90;;
50858;SDS011;36826;47.514;19.056;2022-10-24T02:54:57;3.03;;;1.77;;
50858;SDS011;36826;47.514;19.056;2022-10-24T02:57:22;2.53;;;2.00;;
50858;SDS011;36826;47.514;19.056;2022-10-24T02:59:49;3.75;;;1.80;;
50858;SDS011;36826;47.514;19.056;2022-10-24T03:02:14;2.85;;;1.60;;
50858;SDS011;36826;47.514;19.056;2022-10-24T03:04:39;2.80;;;1.67;;
50858;SDS011;36826;47.514;19.056;2022-10-24T03:07:05;2.75;;;1.80;;
50858;SDS011;36826;47.514;19.056;2022-10-24T03:09:31;3.65;;;1.73;;
50858;SDS011;36826;47.514;19.056;2022-10-24T03:11:57;2.67;;;1.58;;
50858;SDS011;36826;47.514;19.056;2022-10-24T03:14:23;5.25;;;1.70;;
50858;SDS011;36826;47.514;19.056;2022-10-24T03:16:48;3.10;;;1.60;;
50858;SDS011;36826;47.514;19.056;2022-10-24T03:19:14;1.80;;;1.40;;
50858;SDS011;36826;47.514;19.056;2022-10-24T03:21:39;2.83;;;1.95;;
50858;SDS011;36826;47.514;19.056;2022-10-24T03:24:05;2.75;;;1.70;;
50858;SDS011;36826;47.514;19.056;2022-10-24T03:26:31;3.50;;;1.77;;
50858;SDS011;36826;47.514;19.056;2022-10-24T03:28:56;2.60;;;1.50;;
50858;SDS011;36826;47.514;19.056;2022-10-24T03:31:22;3.63;;;1.77;;
50858;SDS011;36826;47.514;19.056;2022-10-24T03:33:47;3.65;;;1.77;;
50858;SDS011;36826;47.514;19.056;2022-10-24T03:36:12;2.45;;;1.52;;
50858;SDS011;36826;47.514;19.056;2022-10-24T03:38:38;2.25;;;1.60;;
50858;SDS011;36826;47.514;19.056;2022-10-24T03:41:03;2.70;;;1.77;;
50858;SDS011;36826;47.514;19.056;2022-10-24T03:43:29;2.22;;;1.50;;
50858;SDS011;36826;47.514;19.056;2022-10-24T03:45:54;2.97;;;1.90;;
50858;SDS011;36826;47.514;19.056;2022-10-24T03:48:20;2.08;;;1.63;;
50858;SDS011;36826;47.514;19.056;2022-10-24T03:50:45;3.65;;;2.05;;
50858;SDS011;36826;47.514;19.056;2022-10-24T03:53:10;3.92;;;1.90;;
50858;SDS011;36826;47.514;19.056;2022-10-24T03:55:36;2.85;;;1.70;;
50858;SDS011;36826;47.514;19.056;2022-10-24T03:58:02;4.28;;;1.83;;
50858;SDS011;36826;47.514;19.056;2022-10-24T04:00:27;2.38;;;1.70;;
50858;SDS011;36826;47.514;19.056;2022-10-24T04:02:53;2.63;;;1.70;;
50858;SDS011;36826;47.514;19.056;2022-10-24T04:05:19;2.53;;;1.77;;
50858;SDS011;36826;47.514;19.056;2022-10-24T04:07:45;2.70;;;1.50;;
50858;SDS011;36826;47.514;19.056;2022-10-24T04:10:10;2.35;;;1.70;;
50858;SDS011;36826;47.514;19.056;2022-10-24T04:12:35;3.03;;;1.73;;
50858;SDS011;36826;47.514;19.056;2022-10-24T04:15:01;2.88;;;2.03;;
50858;SDS011;36826;47.514;19.056;2022-10-24T04:17:27;5.03;;;2.15;;
50858;SDS011;36826;47.514;19.056;2022-10-24T04:19:52;2.58;;;2.10;;
50858;SDS011;36826;47.514;19.056;2022-10-24T04:22:18;3.33;;;2.05;;
50858;SDS011;36826;47.514;19.056;2022-10-24T04:24:43;3.75;;;2.00;;
50858;SDS011;36826;47.514;19.056;2022-10-24T04:27:09;2.80;;;2.00;;
50858;SDS011;36826;47.514;19.056;2022-10-24T04:29:34;2.75;;;2.05;;
50858;SDS011;36826;47.514;19.056;2022-10-24T04:32:00;7.25;;;2.40;;
50858;SDS011;36826;47.514;19.056;2022-10-24T04:34:26;5.20;;;2.35;;
50858;SDS011;36826;47.514;19.056;2022-10-24T04:36:51;2.70;;;2.00;;
50858;SDS011;36826;47.514;19.056;2022-10-24T04:39:17;5.93;;;2.03;;
50858;SDS011;36826;47.514;19.056;2022-10-24T04:41:43;5.35;;;2.20;;
50858;SDS011;36826;47.514;19.056;2022-10-24T04:44:09;6.03;;;2.42;;
50858;SDS011;36826;47.514;19.056;2022-10-24T04:46:34;7.30;;;2.45;;
50858;SDS011;36826;47.514;19.056;2022-10-24T04:49:00;3.03;;;2.15;;
50858;SDS011;36826;47.514;19.056;2022-10-24T04:51:25;4.78;;;2.60;;
50858;SDS011;36826;47.514;19.056;2022-10-24T04:53:51;3.88;;;2.17;;
50858;SDS011;36826;47.514;19.056;2022-10-24T04:56:17;6.70;;;2.50;;
50858;SDS011;36826;47.514;19.056;2022-10-24T04:58:43;6.72;;;2.65;;
50858;SDS011;36826;47.514;19.056;2022-10-24T05:01:08;9.05;;;2.70;;
50858;SDS011;36826;47.514;19.056;2022-10-24T05:03:34;8.35;;;2.65;;
50858;SDS011;36826;47.514;19.056;2022-10-24T05:05:59;6.63;;;2.67;;
50858;SDS011;36826;47.514;19.056;2022-10-24T05:08:24;4.28;;;2.30;;
50858;SDS011;36826;47.514;19.056;2022-10-24T05:10:50;6.10;;;2.60;;
50858;SDS011;36826;47.514;19.056;2022-10-24T05:13:15;4.38;;;2.72;;
50858;SDS011;36826;47.514;19.056;2022-10-24T05:15:41;5.78;;;2.58;;
50858;SDS011;36826;47.514;19.056;2022-10-24T05:18:07;10.13;;;2.67;;
50858;SDS011;36826;47.514;19.056;2022-10-24T05:20:33;8.13;;;3.10;;
50858;SDS011;36826;47.514;19.056;2022-10-24T05:22:58;4.80;;;3.25;;
50858;SDS011;36826;47.514;19.056;2022-10-24T05:25:24;5.28;;;2.88;;
50858;SDS011;36826;47.514;19.056;2022-10-24T05:27:49;5.15;;;2.90;;
50858;SDS011;36826;47.514;19.056;2022-10-24T05:30:14;7.50;;;2.90;;
50858;SDS011;36826;47.514;19.056;2022-10-24T05:32:40;7.90;;;2.95;;
50858;SDS011;36826;47.514;19.056;2022-10-24T05:35:05;9.55;;;3.30;;
50858;SDS011;36826;47.514;19.056;2022-10-24T05:37:31;6.00;;;2.90;;
50858;SDS011;36826;47.514;19.056;2022-10-24T05:39:57;7.18;;;2.72;;
50858;SDS011;36826;47.514;19.056;2022-10-24T05:42:22;6.93;;;3.08;;
50858;SDS011;36826;47.514;19.056;2022-10-24T05:44:48;6.53;;;3.20;;
50858;SDS011;36826;47.514;19.056;2022-10-24T05:47:13;4.95;;;3.17;;
50858;SDS011;36826;47.514;19.056;2022-10-24T05:49:38;8.50;;;3.30;;
50858;SDS011;36826;47.514;19.056;2022-10-24T05:52:04;11.00;;;3.42;;
50858;SDS011;36826;47.514;19.056;2022-10-24T05:54:29;8.55;;;3.58;;
50858;SDS011;36826;47.514;19.056;2022-10-24T05:56:55;12.80;;;3.72;;
50858;SDS011;36826;47.514;19.056;2022-10-24T05:59:20;9.70;;;3.88;;
50858;SDS011;36826;47.514;19.056;2022-10-24T06:01:46;12.63;;;4.05;;
50858;SDS011;36826;47.514;19.056;2022-10-24T06:04:11;8.65;;;4.50;;
50858;SDS011;36826;47.514;19.056;2022-10-24T06:06:37;10.90;;;4.25;;
50858;SDS011;36826;47.514;19.056;2022-10-24T06:09:04;9.85;;;4.38;;
50858;SDS011;36826;47.514;19.056;2022-10-24T06:11:30;12.23;;;4.35;;
50858;SDS011;36826;47.514;19.056;2022-10-24T06:13:55;6.53;;;4.18;;
50858;SDS011;36826;47.514;19.056;2022-10-24T06:16:20;11.18;;;4.70;;
50858;SDS011;36826;47.514;19.056;2022-10-24T06:18:46;7.35;;;4.07;;
50858;SDS011;36826;47.514;19.056;2022-10-24T06:21:11;8.05;;;4.28;;
50858;SDS011;36826;47.514;19.056;2022-10-24T06:23:37;6.47;;;4.10;;
50858;SDS011;36826;47.514;19.056;2022-10-24T06:26:06;9.32;;;4.00;;
50858;SDS011;36826;47.514;19.056;2022-10-24T06:28:34;6.25;;;3.90;;
50858;SDS011;36826;47.514;19.056;2022-10-24T06:30:59;6.25;;;4.10;;
50858;SDS011;36826;47.514;19.056;2022-10-24T06:33:27;9.27;;;4.22;;
50858;SDS011;36826;47.514;19.056;2022-10-24T06:35:52;8.50;;;4.78;;
50858;SDS011;36826;47.514;19.056;2022-10-24T06:38:18;8.43;;;4.63;;
50858;SDS011;36826;47.514;19.056;2022-10-24T06:40:43;9.18;;;4.93;;
50858;SDS011;36826;47.514;19.056;2022-10-24T06:43:08;9.90;;;4.78;;
50858;SDS011;36826;47.514;19.056;2022-10-24T06:45:36;8.35;;;5.20;;
50858;SDS011;36826;47.514;19.056;2022-10-24T06:48:02;8.50;;;4.95;;
50858;SDS011;36826;47.514;19.056;2022-10-24T06:50:27;6.90;;;4.78;;
50858;SDS011;36826;47.514;19.056;2022-10-24T06:52:53;5.88;;;4.53;;
50858;SDS011;36826;47.514;19.056;2022-10-24T06:55:18;9.38;;;4.80;;
50858;SDS011;36826;47.514;19.056;2022-10-24T06:57:44;6.43;;;4.53;;
50858;SDS011;36826;47.514;19.056;2022-10-24T07:00:09;8.73;;;4.95;;
50858;SDS011;36826;47.514;19.056;2022-10-24T07:02:35;12.00;;;5.10;;
50858;SDS011;36826;47.514;19.056;2022-10-24T07:05:01;7.30;;;5.03;;
50858;SDS011;36826;47.514;19.056;2022-10-24T07:07:27;7.35;;;5.00;;
50858;SDS011;36826;47.514;19.056;2022-10-24T07:09:53;7.22;;;5.18;;
50858;SDS011;36826;47.514;19.056;2022-10-24T07:12:21;11.63;;;5.30;;
50858;SDS011;36826;47.514;19.056;2022-10-24T07:14:47;6.65;;;5.28;;
50858;SDS011;36826;47.514;19.056;2022-10-24T07:17:13;11.55;;;6.50;;
50858;SDS011;36826;47.514;19.056;2022-10-24T07:19:39;8.27;;;5.82;;
50858;SDS011;36826;47.514;19.056;2022-10-24T07:22:05;9.68;;;5.80;;
50858;SDS011;36826;47.514;19.056;2022-10-24T07:24:31;9.43;;;6.10;;
50858;SDS011;36826;47.514;19.056;2022-10-24T07:26:56;10.52;;;6.05;;
50858;SDS011;36826;47.514;19.056;2022-10-24T07:29:22;7.80;;;5.72;;
50858;SDS011;36826;47.514;19.056;2022-10-24T07:31:47;12.65;;;6.07;;
50858;SDS011;36826;47.514;19.056;2022-10-24T07:34:13;8.77;;;6.78;;
50858;SDS011;36826;47.514;19.056;2022-10-24T07:36:38;9.50;;;6.28;;
50858;SDS011;36826;47.514;19.056;2022-10-24T07:39:04;10.25;;;6.57;;
50858;SDS011;36826;47.514;19.056;2022-10-24T07:41:30;10.95;;;6.50;;
50858;SDS011;36826;47.514;19.056;2022-10-24T07:43:59;13.32;;;6.82;;
50858;SDS011;36826;47.514;19.056;2022-10-24T07:46:28;9.77;;;7.00;;
50858;SDS011;36826;47.514;19.056;2022-10-24T07:48:54;13.05;;;6.55;;
50858;SDS011;36826;47.514;19.056;2022-10-24T07:51:19;9.85;;;6.10;;
50858;SDS011;36826;47.514;19.056;2022-10-24T07:53:45;10.07;;;6.70;;
50858;SDS011;36826;47.514;19.056;2022-10-24T07:56:12;9.82;;;6.63;;
50858;SDS011;36826;47.514;19.056;2022-10-24T07:58:40;10.60;;;7.35;;
50858;SDS011;36826;47.514;19.056;2022-10-24T08:01:07;11.63;;;7.18;;
50858;SDS011;36826;47.514;19.056;2022-10-24T08:03:35;10.32;;;7.25;;
50858;SDS011;36826;47.514;19.056;2022-10-24T08:06:03;10.48;;;6.78;;
50858;SDS011;36826;47.514;19.056;2022-10-24T08:08:29;11.00;;;7.20;;
50858;SDS011;36826;47.514;19.056;2022-10-24T08:10:55;9.98;;;6.70;;
50858;SDS011;36826;47.514;19.056;2022-10-24T08:13:20;12.30;;;7.10;;
50858;SDS011;36826;47.514;19.056;2022-10-24T08:15:45;10.73;;;7.05;;
50858;SDS011;36826;47.514;19.056;2022-10-24T08:18:11;10.85;;;7.53;;
50858;SDS011;36826;47.514;19.056;2022-10-24T08:20:36;14.60;;;7.38;;
50858;SDS011;36826;47.514;19.056;2022-10-24T08:23:02;10.45;;;7.25;;
50858;SDS011;36826;47.514;19.056;2022-10-24T08:25:27;9.68;;;6.72;;
50858;SDS011;36826;47.514;19.056;2022-10-24T08:27:52;9.10;;;6.93;;
50858;SDS011;36826;47.514;19.056;2022-10-24T08:30:18;11.15;;;6.90;;
50858;SDS011;36826;47.514;19.056;2022-10-24T08:32:44;9.75;;;6.70;;
50858;SDS011;36826;47.514;19.056;2022-10-24T08:35:10;8.90;;;6.60;;
50858;SDS011;36826;47.514;19.056;2022-10-24T08:37:40;8.98;;;6.82;;
50858;SDS011;36826;47.514;19.056;2022-10-24T08:40:06;9.05;;;6.60;;
50858;SDS011;36826;47.514;19.056;2022-10-24T08:42:33;10.60;;;7.00;;
50858;SDS011;36826;47.514;19.056;2022-10-24T08:45:00;9.05;;;6.88;;
50858;SDS011;36826;47.514;19.056;2022-10-24T08:52:27;9.82;;;6.22;;
50858;SDS011;36826;47.514;19.056;2022-10-24T08:55:19;10.25;;;6.15;;
50858;SDS011;36826;47.514;19.056;2022-10-24T08:57:50;10.50;;;6.70;;
50858;SDS011;36826;47.514;19.056;2022-10-24T09:00:20;11.10;;;6.20;;
50858;SDS011;36826;47.514;19.056;2022-10-24T09:02:50;9.25;;;6.43;;
50858;SDS011;36826;47.514;19.056;2022-10-24T09:05:23;11.40;;;6.60;;
50858;SDS011;36826;47.514;19.056;2022-10-24T09:07:53;10.75;;;6.55;;
50858;SDS011;36826;47.514;19.056;2022-10-24T09:10:40;8.38;;;6.40;;
50858;SDS011;36826;47.514;19.056;2022-10-24T09:13:11;8.32;;;6.40;;
50858;SDS011;36826;47.514;19.056;2022-10-24T09:15:38;13.60;;;7.15;;
50858;SDS011;36826;47.514;19.056;2022-10-24T09:18:09;10.50;;;6.70;;
50858;SDS011;36826;47.514;19.056;2022-10-24T09:20:48;11.52;;;6.50;;
50858;SDS011;36826;47.514;19.056;2022-10-24T09:23:15;11.48;;;6.55;;
50858;SDS011;36826;47.514;19.056;2022-10-24T09:25:44;8.82;;;6.35;;
50858;SDS011;36826;47.514;19.056;2022-10-24T09:28:21;12.10;;;6.70;;
50858;SDS011;36826;47.514;19.056;2022-10-24T09:30:47;12.55;;;6.63;;
50858;SDS011;36826;47.514;19.056;2022-10-24T09:35:45;15.27;;;6.82;;
50858;SDS011;36826;47.514;19.056;2022-10-24T09:40:49;14.50;;;8.55;;
50858;SDS011;36826;47.514;19.056;2022-10-24T09:43:17;15.57;;;8.23;;
50858;SDS011;36826;47.514;19.056;2022-10-24T09:46:07;13.15;;;7.95;;
50858;SDS011;36826;47.514;19.056;2022-10-24T09:48:42;10.90;;;7.55;;
50858;SDS011;36826;47.514;19.056;2022-10-24T09:51:19;12.68;;;6.97;;
50858;SDS011;36826;47.514;19.056;2022-10-24T09:54:01;14.63;;;7.65;;
50858;SDS011;36826;47.514;19.056;2022-10-24T09:56:35;11.75;;;7.28;;
50858;SDS011;36826;47.514;19.056;2022-10-24T09:59:21;13.18;;;7.43;;
50858;SDS011;36826;47.514;19.056;2022-10-24T10:04:34;14.07;;;7.25;;
50858;SDS011;36826;47.514;19.056;2022-10-24T10:07:01;11.18;;;6.97;;
50858;SDS011;36826;47.514;19.056;2022-10-24T10:09:33;11.65;;;6.55;;
50858;SDS011;36826;47.514;19.056;2022-10-24T10:12:05;10.82;;;6.65;;
50858;SDS011;36826;47.514;19.056;2022-10-24T10:14:48;10.25;;;7.03;;
50858;SDS011;36826;47.514;19.056;2022-10-24T10:17:17;12.07;;;6.88;;
50858;SDS011;36826;47.514;19.056;2022-10-24T10:19:50;10.85;;;6.93;;
50858;SDS011;36826;47.514;19.056;2022-10-24T10:22:24;9.60;;;6.68;;
50858;SDS011;36826;47.514;19.056;2022-10-24T10:24:54;9.43;;;6.32;;
50858;SDS011;36826;47.514;19.056;2022-10-24T10:27:31;11.85;;;6.95;;
50858;SDS011;36826;47.514;19.056;2022-10-24T10:35:19;10.32;;;6.35;;
50858;SDS011;36826;47.514;19.056;2022-10-24T10:38:02;11.57;;;6.47;;
50858;SDS011;36826;47.514;19.056;2022-10-24T10:40:43;9.30;;;5.85;;
50858;SDS011;36826;47.514;19.056;2022-10-24T10:43:31;11.68;;;6.55;;
50858;SDS011;36826;47.514;19.056;2022-10-24T10:56:51;11.15;;;7.38;;
50858;SDS011;36826;47.514;19.056;2022-10-24T11:07:29;8.88;;;5.95;;
50858;SDS011;36826;47.514;19.056;2022-10-24T11:09:58;13.45;;;7.05;;
50858;SDS011;36826;47.514;19.056;2022-10-24T11:12:33;15.27;;;9.00;;
50858;SDS011;36826;47.514;19.056;2022-10-24T11:18:00;19.92;;;12.07;;
50858;SDS011;36826;47.514;19.056;2022-10-24T11:20:41;19.08;;;11.30;;
50858;SDS011;36826;47.514;19.056;2022-10-24T11:23:13;17.65;;;10.23;;
50858;SDS011;36826;47.514;19.056;2022-10-24T11:26:01;18.38;;;10.40;;
50858;SDS011;36826;47.514;19.056;2022-10-24T11:28:51;16.90;;;9.75;;
50858;SDS011;36826;47.514;19.056;2022-10-24T11:31:19;15.73;;;9.20;;
50858;SDS011;36826;47.514;19.056;2022-10-24T11:36:50;20.02;;;8.85;;
50858;SDS011;36826;47.514;19.056;2022-10-24T11:39:39;16.80;;;8.52;;
50858;SDS011;36826;47.514;19.056;2022-10-24T11:42:14;17.02;;;9.10;;
50858;SDS011;36826;47.514;19.056;2022-10-24T11:45:11;15.15;;;8.45;;
50858;SDS011;36826;47.514;19.056;2022-10-24T11:53:11;19.77;;;8.48;;
50858;SDS011;36826;47.514;19.056;2022-10-24T11:55:40;14.48;;;8.57;;
50858;SDS011;36826;47.514;19.056;2022-10-24T11:58:16;17.05;;;8.70;;
50858;SDS011;36826;47.514;19.056;2022-10-24T12:09:10;17.23;;;8.65;;
50858;SDS011;36826;47.514;19.056;2022-10-24T12:11:59;12.98;;;7.72;;
50858;SDS011;36826;47.514;19.056;2022-10-24T12:19:53;13.10;;;8.20;;
50858;SDS011;36826;47.514;19.056;2022-10-24T12:22:20;14.15;;;8.40;;
50858;SDS011;36826;47.514;19.056;2022-10-24T12:25:01;14.35;;;8.52;;
50858;SDS011;36826;47.514;19.056;2022-10-24T12:27:33;13.23;;;8.38;;
50858;SDS011;36826;47.514;19.056;2022-10-24T12:30:21;14.07;;;8.13;;
50858;SDS011;36826;47.514;19.056;2022-10-24T12:32:51;13.77;;;7.88;;
50858;SDS011;36826;47.514;19.056;2022-10-24T12:37:54;12.80;;;7.53;;
50858;SDS011;36826;47.514;19.056;2022-10-24T12:43:27;15.18;;;8.18;;
50858;SDS011;36826;47.514;19.056;2022-10-24T12:48:43;14.10;;;7.57;;
50858;SDS011;36826;47.514;19.056;2022-10-24T12:53:58;13.93;;;7.65;;
50858;SDS011;36826;47.514;19.056;2022-10-24T12:56:33;11.80;;;7.55;;
50858;SDS011;36826;47.514;19.056;2022-10-24T12:59:02;12.48;;;7.50;;
50858;SDS011;36826;47.514;19.056;2022-10-24T13:01:41;13.50;;;6.95;;
50858;SDS011;36826;47.514;19.056;2022-10-24T13:04:28;13.30;;;7.43;;
50858;SDS011;36826;47.514;19.056;2022-10-24T13:13:04;10.90;;;6.95;;
50858;SDS011;36826;47.514;19.056;2022-10-24T13:23:41;12.52;;;7.03;;
50858;SDS011;36826;47.514;19.056;2022-10-24T13:26:23;13.30;;;6.90;;
50858;SDS011;36826;47.514;19.056;2022-10-24T13:29:15;11.52;;;6.78;;
50858;SDS011;36826;47.514;19.056;2022-10-24T13:37:43;11.05;;;6.75;;
50858;SDS011;36826;47.514;19.056;2022-10-24T13:43:00;10.57;;;6.88;;
50858;SDS011;36826;47.514;19.056;2022-10-24T13:45:45;10.85;;;6.88;;
50858;SDS011;36826;47.514;19.056;2022-10-24T13:48:20;10.48;;;6.85;;
50858;SDS011;36826;47.514;19.056;2022-10-24T13:53:34;10.60;;;7.03;;
50858;SDS011;36826;47.514;19.056;2022-10-24T13:56:10;10.60;;;6.55;;
50858;SDS011;36826;47.514;19.056;2022-10-24T13:58:38;10.55;;;6.53;;
50858;SDS011;36826;47.514;19.056;2022-10-24T14:01:06;11.85;;;6.93;;
50858;SDS011;36826;47.514;19.056;2022-10-24T14:03:41;12.73;;;6.82;;
50858;SDS011;36826;47.514;19.056;2022-10-24T14:06:07;14.25;;;6.68;;
50858;SDS011;36826;47.514;19.056;2022-10-24T14:11:07;12.65;;;6.90;;
50858;SDS011;36826;47.514;19.056;2022-10-24T14:13:37;11.50;;;6.30;;
50858;SDS011;36826;47.514;19.056;2022-10-24T14:16:07;14.35;;;6.78;;
50858;SDS011;36826;47.514;19.056;2022-10-24T14:18:32;14.00;;;7.05;;
50858;SDS011;36826;47.514;19.056;2022-10-24T14:21:01;13.63;;;6.60;;
50858;SDS011;36826;47.514;19.056;2022-10-24T14:24:13;13.88;;;6.22;;
50858;SDS011;36826;47.514;19.056;2022-10-24T14:26:26;10.35;;;5.95;;
50858;SDS011;36826;47.514;19.056;2022-10-24T14:29:01;13.55;;;6.20;;
50858;SDS011;36826;47.514;19.056;2022-10-24T14:31:27;12.32;;;7.07;;
50858;SDS011;36826;47.514;19.056;2022-10-24T14:33:59;14.95;;;7.10;;
50858;SDS011;36826;47.514;19.056;2022-10-24T14:36:29;13.40;;;6.50;;
50858;SDS011;36826;47.514;19.056;2022-10-24T14:38:57;10.07;;;6.32;;
50858;SDS011;36826;47.514;19.056;2022-10-24T14:41:33;11.85;;;6.43;;
50858;SDS011;36826;47.514;19.056;2022-10-24T14:44:04;13.23;;;6.57;;
50858;SDS011;36826;47.514;19.056;2022-10-24T14:46:38;11.43;;;6.43;;
50858;SDS011;36826;47.514;19.056;2022-10-24T14:49:18;11.02;;;6.28;;
50858;SDS011;36826;47.514;19.056;2022-10-24T14:54:31;10.40;;;5.82;;
50858;SDS011;36826;47.514;19.056;2022-10-24T14:56:58;9.93;;;6.28;;
50858;SDS011;36826;47.514;19.056;2022-10-24T15:02:03;9.57;;;5.70;;
50858;SDS011;36826;47.514;19.056;2022-10-24T15:04:37;10.98;;;6.15;;
50858;SDS011;36826;47.514;19.056;2022-10-24T15:09:57;9.88;;;5.70;;
50858;SDS011;36826;47.514;19.056;2022-10-24T15:15:23;10.23;;;5.85;;
50858;SDS011;36826;47.514;19.056;2022-10-24T15:20:43;8.38;;;5.85;;
50858;SDS011;36826;47.514;19.056;2022-10-24T15:23:25;10.27;;;5.70;;
50858;SDS011;36826;47.514;19.056;2022-10-24T15:26:09;10.45;;;5.90;;
50858;SDS011;36826;47.514;19.056;2022-10-24T15:28:43;9.07;;;5.40;;
50858;SDS011;36826;47.514;19.056;2022-10-24T15:31:43;7.63;;;5.50;;
50858;SDS011;36826;47.514;19.056;2022-10-24T15:34:16;13.27;;;5.95;;
50858;SDS011;36826;47.514;19.056;2022-10-24T15:36:44;14.25;;;6.47;;
50858;SDS011;36826;47.514;19.056;2022-10-24T15:39:12;10.37;;;6.00;;
50858;SDS011;36826;47.514;19.056;2022-10-24T15:41:40;13.02;;;5.70;;
50858;SDS011;36826;47.514;19.056;2022-10-24T15:44:23;17.75;;;6.28;;
50858;SDS011;36826;47.514;19.056;2022-10-24T15:46:52;12.00;;;5.57;;
50858;SDS011;36826;47.514;19.056;2022-10-24T15:49:18;14.88;;;5.53;;
50858;SDS011;36826;47.514;19.056;2022-10-24T15:51:44;13.15;;;5.72;;
50858;SDS011;36826;47.514;19.056;2022-10-24T15:54:13;17.48;;;5.72;;
50858;SDS011;36826;47.514;19.056;2022-10-24T15:56:40;13.25;;;5.82;;
50858;SDS011;36826;47.514;19.056;2022-10-24T15:59:05;15.88;;;5.28;;
50858;SDS011;36826;47.514;19.056;2022-10-24T16:01:32;15.35;;;5.35;;
50858;SDS011;36826;47.514;19.056;2022-10-24T16:03:58;12.25;;;5.40;;
50858;SDS011;36826;47.514;19.056;2022-10-24T16:06:24;18.10;;;5.65;;
50858;SDS011;36826;47.514;19.056;2022-10-24T16:08:50;15.48;;;5.88;;
50858;SDS011;36826;47.514;19.056;2022-10-24T16:11:16;17.27;;;5.35;;
50858;SDS011;36826;47.514;19.056;2022-10-24T16:13:42;14.60;;;5.38;;
50858;SDS011;36826;47.514;19.056;2022-10-24T16:16:08;18.48;;;5.70;;
50858;SDS011;36826;47.514;19.056;2022-10-24T16:18:33;10.88;;;5.07;;
50858;SDS011;36826;47.514;19.056;2022-10-24T16:20:59;15.48;;;5.57;;
50858;SDS011;36826;47.514;19.056;2022-10-24T16:23:25;14.57;;;5.40;;
50858;SDS011;36826;47.514;19.056;2022-10-24T16:25:51;13.68;;;5.78;;
50858;SDS011;36826;47.514;19.056;2022-10-24T16:28:17;11.07;;;4.97;;
50858;SDS011;36826;47.514;19.056;2022-10-24T16:30:44;13.13;;;5.60;;
50858;SDS011;36826;47.514;19.056;2022-10-24T16:33:10;13.20;;;5.20;;
50858;SDS011;36826;47.514;19.056;2022-10-24T16:35:36;12.40;;;5.22;;
50858;SDS011;36826;47.514;19.056;2022-10-24T16:38:03;14.90;;;5.73;;
50858;SDS011;36826;47.514;19.056;2022-10-24T16:40:30;14.82;;;5.50;;
50858;SDS011;36826;47.514;19.056;2022-10-24T16:43:00;15.07;;;5.20;;
50858;SDS011;36826;47.514;19.056;2022-10-24T16:45:26;10.82;;;5.13;;
50858;SDS011;36826;47.514;19.056;2022-10-24T16:47:52;17.45;;;5.70;;
50858;SDS011;36826;47.514;19.056;2022-10-24T16:50:18;19.25;;;5.35;;
50858;SDS011;36826;47.514;19.056;2022-10-24T16:52:48;21.13;;;5.28;;
50858;SDS011;36826;47.514;19.056;2022-10-24T16:55:17;10.98;;;5.68;;
50858;SDS011;36826;47.514;19.056;2022-10-24T16:57:47;13.10;;;5.50;;
50858;SDS011;36826;47.514;19.056;2022-10-24T17:00:13;14.68;;;5.10;;